PWSweather.com
Personal Weather Stations
Station Observations
CW4438
Little Flock, AR 72756

Little Flock, AR 72756

Lat: 36.39, Lon: -94.14

Elevation: 1278

Station Type: Davis/Vantage Pro

Latest ConditionsUpdated 6:30:04 PM CDT Wednesday, Jul 29, 2015
Currently Today's Max Today's Min Today's Average
Temperature 92.0°F33.3°C 93.9°F34.4°C 71.0°F21.7°C 82.2°F27.9°C
Dew Point 75.6°F24.2°C 75.9°F24.4°C 69.8°F21.0°C 73.0°F22.8°C
Winds Calm Calm 4.0 mph WSW6.4 kmh WSW - 0.2 mph 0.3 kmh
Wind Gusts -- -- - -
Humidity 59% 97% 49% 77%
Pressure 29.94 in1013.9 mb 30.01 in1016.3 mb 29.90 in1012.5 mb -
Hour Temp Dew Point Humidity Winds Wind Gusts Pressure Precip Precip Rate Daily Precip Total
06:30 PM 92.0°F33.3°C 75.6°F24.2°C 59% Calm Calm -- 29.94 in1013.9 mb 0.00 in0.0 mm 0.00 in0.0 mm 0.00 in0.0 mm
06:00 PM 93.0°F33.9°C 75.5°F24.2°C 57% Calm Calm -- 29.94 in1013.9 mb 0.00 in0.0 mm 0.00 in0.0 mm 0.00 in0.0 mm
05:20 PM 93.1°F33.9°C 72.3°F22.4°C 51% Calm Calm -- 29.94 in1013.9 mb 0.00 in0.0 mm 0.00 in0.0 mm 0.00 in0.0 mm
04:50 PM 93.3°F34.1°C 73.1°F22.8°C 52% Calm Calm -- 29.94 in1013.9 mb 0.00 in0.0 mm 0.00 in0.0 mm 0.00 in0.0 mm
04:10 PM 93.9°F34.4°C 74.2°F23.4°C 53% Calm Calm -- 29.95 in1014.2 mb 0.00 in0.0 mm 0.00 in0.0 mm 0.00 in0.0 mm
03:50 PM 93.8°F34.3°C 72.4°F22.4°C 50% Calm Calm -- 29.95 in1014.2 mb 0.00 in0.0 mm 0.00 in0.0 mm 0.00 in0.0 mm
03:20 PM 93.0°F33.9°C 72.2°F22.3°C 51% 1.0 mph NW1.6 kmh NW -- 29.97 in1014.9 mb 0.00 in0.0 mm 0.00 in0.0 mm 0.00 in0.0 mm
02:50 PM 92.8°F33.8°C 70.9°F21.6°C 49% Calm Calm -- 29.97 in1014.9 mb 0.00 in0.0 mm 0.00 in0.0 mm 0.00 in0.0 mm
02:20 PM 91.7°F33.2°C 72.7°F22.6°C 54% Calm Calm -- 29.98 in1015.2 mb 0.00 in0.0 mm 0.00 in0.0 mm 0.00 in0.0 mm
01:55 PM 91.7°F33.2°C 69.8°F21.0°C 49% Calm Calm -- 29.98 in1015.2 mb 0.00 in0.0 mm 0.00 in0.0 mm 0.00 in0.0 mm
01:30 PM 90.6°F32.6°C 75.3°F24.1°C 61% 1.0 mph NNW1.6 kmh NNW -- 29.99 in1015.6 mb 0.00 in0.0 mm 0.00 in0.0 mm 0.00 in0.0 mm
01:00 PM 89.3°F31.8°C 73.6°F23.1°C 60% Calm Calm -- 29.99 in1015.6 mb 0.00 in0.0 mm 0.00 in0.0 mm 0.00 in0.0 mm
12:30 PM 88.6°F31.4°C 72.5°F22.5°C 59% Calm Calm -- 30.00 in1015.9 mb 0.00 in0.0 mm 0.00 in0.0 mm 0.00 in0.0 mm
12:00 PM 87.3°F30.7°C 73.6°F23.1°C 64% Calm Calm -- 30.01 in1016.3 mb 0.00 in0.0 mm 0.00 in0.0 mm 0.00 in0.0 mm
11:40 AM 87.0°F30.6°C 74.7°F23.7°C 67% Calm Calm -- 30.00 in1015.9 mb 0.00 in0.0 mm 0.00 in0.0 mm 0.00 in0.0 mm
11:10 AM 86.3°F30.2°C 74.1°F23.4°C 67% Calm Calm -- 30.01 in1016.3 mb 0.00 in0.0 mm 0.00 in0.0 mm 0.00 in0.0 mm
10:40 AM 86.0°F30.0°C 73.8°F23.2°C 67% Calm Calm -- 30.01 in1016.3 mb 0.00 in0.0 mm 0.00 in0.0 mm 0.00 in0.0 mm
10:10 AM 85.8°F29.9°C 74.9°F23.8°C 70% 4.0 mph WSW6.4 kmh WSW -- 30.00 in1015.9 mb 0.00 in0.0 mm 0.00 in0.0 mm 0.00 in0.0 mm
09:20 AM 84.7°F29.3°C 75.5°F24.2°C 74% Calm Calm -- 30.00 in1015.9 mb 0.00 in0.0 mm 0.00 in0.0 mm 0.00 in0.0 mm
09:00 AM 81.6°F27.6°C 75.9°F24.4°C 83% Calm Calm -- 30.00 in1015.9 mb 0.00 in0.0 mm 0.00 in0.0 mm 0.00 in0.0 mm
08:40 AM 78.6°F25.9°C 75.4°F24.1°C 90% Calm Calm -- 30.00 in1015.9 mb 0.00 in0.0 mm 0.00 in0.0 mm 0.00 in0.0 mm
08:10 AM 73.7°F23.2°C 72.8°F22.7°C 97% Calm Calm -- 30.00 in1015.9 mb 0.00 in0.0 mm 0.00 in0.0 mm 0.00 in0.0 mm
07:20 AM 71.4°F21.9°C 70.5°F21.4°C 97% Calm Calm -- 29.96 in1014.6 mb 0.00 in0.0 mm 0.00 in0.0 mm 0.00 in0.0 mm
06:50 AM 71.0°F21.7°C 69.8°F21.0°C 96% Calm Calm -- 29.95 in1014.2 mb 0.00 in0.0 mm 0.00 in0.0 mm 0.00 in0.0 mm
06:20 AM 71.3°F21.8°C 70.1°F21.2°C 96% Calm Calm -- 29.94 in1013.9 mb 0.00 in0.0 mm 0.00 in0.0 mm 0.00 in0.0 mm
05:50 AM 71.9°F22.2°C 70.7°F21.5°C 96% Calm Calm -- 29.94 in1013.9 mb 0.00 in0.0 mm 0.00 in0.0 mm 0.00 in0.0 mm
05:20 AM 72.4°F22.4°C 71.2°F21.8°C 96% Calm Calm -- 29.93 in1013.5 mb 0.00 in0.0 mm 0.00 in0.0 mm 0.00 in0.0 mm
04:50 AM 72.8°F22.7°C 71.6°F22.0°C 96% Calm Calm -- 29.92 in1013.2 mb 0.00 in0.0 mm 0.00 in0.0 mm 0.00 in0.0 mm
04:20 AM 73.1°F22.8°C 71.9°F22.2°C 96% Calm Calm -- 29.92 in1013.2 mb 0.00 in0.0 mm 0.00 in0.0 mm 0.00 in0.0 mm
03:50 AM 73.5°F23.1°C 72.0°F22.2°C 95% Calm Calm -- 29.92 in1013.2 mb 0.00 in0.0 mm 0.00 in0.0 mm 0.00 in0.0 mm
03:30 AM 73.8°F23.2°C 72.6°F22.6°C 96% Calm Calm -- 29.92 in1013.2 mb 0.00 in0.0 mm 0.00 in0.0 mm 0.00 in0.0 mm
03:00 AM 74.1°F23.4°C 72.6°F22.6°C 95% Calm Calm -- 29.92 in1013.2 mb 0.00 in0.0 mm 0.00 in0.0 mm 0.00 in0.0 mm
02:30 AM 74.5°F23.6°C 73.0°F22.8°C 95% Calm Calm -- 29.92 in1013.2 mb 0.00 in0.0 mm 0.00 in0.0 mm 0.00 in0.0 mm
02:00 AM 74.6°F23.7°C 73.1°F22.8°C 95% Calm Calm -- 29.91 in1012.9 mb 0.00 in0.0 mm 0.00 in0.0 mm 0.00 in0.0 mm
01:40 AM 74.8°F23.8°C 73.3°F22.9°C 95% Calm Calm -- 29.91 in1012.9 mb 0.00 in0.0 mm 0.00 in0.0 mm 0.00 in0.0 mm
01:10 AM 75.1°F23.9°C 73.6°F23.1°C 95% Calm Calm -- 29.92 in1013.2 mb 0.00 in0.0 mm 0.00 in0.0 mm 0.00 in0.0 mm
12:40 AM 75.5°F24.2°C 74.0°F23.3°C 95% Calm Calm -- 29.91 in1012.9 mb 0.00 in0.0 mm 0.00 in0.0 mm 0.00 in0.0 mm
12:10 AM 76.1°F24.5°C 74.3°F23.5°C 94% Calm Calm -- 29.90 in1012.5 mb 0.00 in0.0 mm 0.00 in0.0 mm 0.00 in0.0 mm